createdAt,value
2022-10-09T00:01:11.607Z,9.90
2022-10-09T00:03:41.005Z,9.20
2022-10-09T00:06:12.718Z,9.87
2022-10-09T00:08:45.697Z,9.40
2022-10-09T00:11:15.579Z,9.27
2022-10-09T00:13:44.036Z,9.15
2022-10-09T00:16:14.530Z,9.73
2022-10-09T00:18:43.127Z,9.20
2022-10-09T00:21:19.544Z,8.77
2022-10-09T00:23:47.691Z,7.53
2022-10-09T00:26:15.809Z,7.97
2022-10-09T00:28:44.109Z,7.38
2022-10-09T00:31:12.699Z,7.40
2022-10-09T00:33:41.226Z,7.15
2022-10-09T00:36:12.237Z,7.53
2022-10-09T00:38:41.614Z,6.95
2022-10-09T00:41:09.948Z,6.70
2022-10-09T00:43:42.154Z,7.70
2022-10-09T00:46:20.498Z,7.13
2022-10-09T00:48:53.275Z,6.00
2022-10-09T00:51:21.304Z,6.28
2022-10-09T00:53:50.694Z,5.65
2022-10-09T00:56:18.908Z,6.37
2022-10-09T00:58:52.636Z,6.67
2022-10-09T01:01:20.907Z,5.80
2022-10-09T01:03:48.898Z,6.57
2022-10-09T01:06:21.306Z,5.10
2022-10-09T01:09:01.629Z,5.35
2022-10-09T01:11:39.920Z,5.95
2022-10-09T01:14:17.788Z,5.50
2022-10-09T01:16:57.966Z,5.20
2022-10-09T01:19:40.764Z,5.63
2022-10-09T01:22:20.248Z,4.88
2022-10-09T01:24:55.808Z,5.15
2022-10-09T01:27:28.806Z,5.78
2022-10-09T01:30:00.947Z,5.25
2022-10-09T01:32:32.884Z,5.53
2022-10-09T01:35:02.328Z,5.50
2022-10-09T01:37:32.332Z,5.47
2022-10-09T01:40:01.200Z,5.22
2022-10-09T01:42:31.180Z,4.80
2022-10-09T01:44:59.140Z,4.57
2022-10-09T01:47:27.389Z,4.00
2022-10-09T01:50:00.034Z,2.85
2022-10-09T01:52:43.231Z,2.80
2022-10-09T01:55:23.887Z,2.63
2022-10-09T01:57:57.802Z,1.67
2022-10-09T02:00:26.691Z,1.65
2022-10-09T02:02:56.187Z,0.60
2022-10-09T02:05:27.417Z,1.02
2022-10-09T02:07:56.309Z,2.70
2022-10-09T02:10:26.038Z,0.80
2022-10-09T02:12:57.580Z,1.30
2022-10-09T02:15:29.397Z,0.95
2022-10-09T02:18:04.516Z,1.08
2022-10-09T02:20:36.148Z,1.33
2022-10-09T02:23:07.409Z,0.52
2022-10-09T02:25:36.221Z,1.38
2022-10-09T02:28:06.640Z,1.67
2022-10-09T02:30:40.334Z,1.42
2022-10-09T02:33:08.300Z,1.08
2022-10-09T02:35:37.322Z,0.80
2022-10-09T02:38:05.342Z,0.50
2022-10-09T02:40:33.380Z,0.80
2022-10-09T02:43:01.891Z,1.02
2022-10-09T02:45:31.367Z,0.57
2022-10-09T02:47:59.349Z,0.90
2022-10-09T02:50:27.280Z,2.50
2022-10-09T02:52:55.321Z,1.08
2022-10-09T02:55:23.465Z,0.75
2022-10-09T02:57:51.445Z,2.03
2022-10-09T03:00:19.547Z,0.95
2022-10-09T03:02:49.263Z,1.27
2022-10-09T03:05:17.496Z,1.38
2022-10-09T03:07:51.316Z,1.15
2022-10-09T03:10:19.876Z,0.63
2022-10-09T03:12:48.941Z,2.30
2022-10-09T03:15:17.428Z,0.82
2022-10-09T03:17:45.436Z,0.68
2022-10-09T03:20:14.768Z,0.65
2022-10-09T03:22:43.185Z,0.93
2022-10-09T03:25:11.156Z,1.02
2022-10-09T03:27:39.349Z,0.93
2022-10-09T03:30:08.485Z,1.15
2022-10-09T03:32:36.656Z,0.45
2022-10-09T03:35:04.915Z,1.10
2022-10-09T03:37:34.372Z,0.80
2022-10-09T03:40:02.357Z,1.02
2022-10-09T03:42:30.317Z,0.55
2022-10-09T03:45:00.795Z,2.65
2022-10-09T03:47:30.863Z,0.82
2022-10-09T03:49:58.868Z,2.17
2022-10-09T03:52:26.957Z,1.00
2022-10-09T03:54:56.400Z,0.85
2022-10-09T03:57:24.411Z,0.70
2022-10-09T03:59:52.399Z,1.30
2022-10-09T04:02:20.532Z,0.95
2022-10-09T04:04:48.482Z,0.93
2022-10-09T04:07:16.557Z,0.70
2022-10-09T04:09:44.561Z,0.80
2022-10-09T04:12:13.959Z,0.85
2022-10-09T04:14:41.973Z,1.17
2022-10-09T04:17:10.194Z,0.70
2022-10-09T04:19:38.189Z,1.05
2022-10-09T04:22:06.196Z,0.60
2022-10-09T04:24:34.162Z,0.50
2022-10-09T04:27:02.174Z,0.90
2022-10-09T04:29:31.639Z,0.82
2022-10-09T04:31:59.744Z,0.73
2022-10-09T04:34:27.732Z,0.65
2022-10-09T04:36:55.764Z,0.50
2022-10-09T04:39:23.762Z,0.70
2022-10-09T04:41:51.802Z,0.93
2022-10-09T04:44:19.974Z,0.57
2022-10-09T04:46:51.477Z,1.23
2022-10-09T04:49:19.631Z,0.50
2022-10-09T04:51:47.790Z,1.08
2022-10-09T04:54:15.946Z,1.05
2022-10-09T04:56:43.959Z,0.82
2022-10-09T04:59:12.700Z,1.25
2022-10-09T05:01:40.990Z,0.50
2022-10-09T05:04:10.415Z,1.40
2022-10-09T05:06:38.531Z,0.70
2022-10-09T05:09:06.524Z,0.68
2022-10-09T05:11:35.702Z,1.23
2022-10-09T05:14:06.164Z,1.48
2022-10-09T05:16:49.413Z,1.33
2022-10-09T05:19:23.694Z,1.45
2022-10-09T05:21:51.716Z,0.88
2022-10-09T05:24:19.733Z,0.82
2022-10-09T05:26:47.794Z,0.60
2022-10-09T05:29:15.747Z,0.50
2022-10-09T05:31:49.083Z,0.57
2022-10-09T05:34:17.572Z,1.20
2022-10-09T05:36:46.969Z,1.92
2022-10-09T05:39:14.949Z,0.85
2022-10-09T05:41:42.982Z,0.57
2022-10-09T05:44:11.742Z,0.82
2022-10-09T05:46:39.764Z,0.73
2022-10-09T05:49:07.767Z,0.75
2022-10-09T05:51:37.842Z,0.75
2022-10-09T05:54:08.022Z,0.82
2022-10-09T05:56:37.402Z,0.73
2022-10-09T05:59:07.358Z,1.77
2022-10-09T06:01:37.747Z,1.00
2022-10-09T06:04:09.409Z,1.25
2022-10-09T06:06:39.896Z,0.95
2022-10-09T06:09:10.420Z,0.75
2022-10-09T06:11:40.512Z,0.70
2022-10-09T06:14:10.708Z,1.23
2022-10-09T06:16:40.171Z,0.70
2022-10-09T06:19:09.031Z,1.08
2022-10-09T06:21:37.097Z,1.40
2022-10-09T06:24:06.099Z,0.93
2022-10-09T06:26:36.103Z,0.70
2022-10-09T06:29:04.831Z,0.73
2022-10-09T06:31:34.074Z,0.82
2022-10-09T06:34:03.244Z,0.30
2022-10-09T06:36:34.272Z,0.52
2022-10-09T06:39:03.339Z,1.00
2022-10-09T06:41:31.603Z,0.68
2022-10-09T06:44:02.526Z,0.80
2022-10-09T06:46:32.489Z,0.77
2022-10-09T06:49:01.412Z,0.90
2022-10-09T06:51:30.276Z,0.70
2022-10-09T06:54:00.062Z,0.60
2022-10-09T06:56:29.373Z,3.45
2022-10-09T06:58:57.449Z,1.05
2022-10-09T07:01:32.165Z,0.77
2022-10-09T07:04:02.761Z,1.00
2022-10-09T07:06:32.885Z,1.58
2022-10-09T07:09:02.803Z,0.80
2022-10-09T07:11:33.274Z,1.10
2022-10-09T07:14:03.046Z,0.98
2022-10-09T07:16:34.385Z,1.02
2022-10-09T07:19:03.796Z,1.17
2022-10-09T07:21:31.860Z,1.23
2022-10-09T07:24:01.756Z,0.90
2022-10-09T07:26:31.764Z,1.85
2022-10-09T07:28:59.895Z,0.47
2022-10-09T07:31:28.052Z,1.90
2022-10-09T07:33:57.632Z,0.60
2022-10-09T07:36:26.077Z,1.20
2022-10-09T07:38:56.235Z,0.75
2022-10-09T07:41:27.384Z,0.40
2022-10-09T07:43:55.728Z,0.47
2022-10-09T07:46:28.547Z,0.30
2022-10-09T07:49:00.294Z,1.10
2022-10-09T07:51:30.198Z,1.40
2022-10-09T07:53:58.513Z,1.85
2022-10-09T07:56:29.123Z,1.85
2022-10-09T07:58:59.221Z,0.57
2022-10-09T08:01:28.763Z,2.03
2022-10-09T08:03:57.403Z,3.55
2022-10-09T08:06:27.360Z,1.98
2022-10-09T08:08:57.843Z,1.70
2022-10-09T08:11:27.473Z,1.73
2022-10-09T08:13:56.321Z,1.50
2022-10-09T08:16:26.070Z,2.35
2022-10-09T08:18:56.731Z,2.55
2022-10-09T08:21:27.988Z,2.47
2022-10-09T08:23:57.702Z,1.83
2022-10-09T08:26:27.367Z,1.55
2022-10-09T08:28:57.129Z,1.45
2022-10-09T08:31:25.545Z,1.85
2022-10-09T08:33:54.893Z,3.42
2022-10-09T08:36:23.595Z,1.58
2022-10-09T08:38:53.719Z,1.90
2022-10-09T08:41:35.451Z,2.10
2022-10-09T08:44:07.668Z,1.48
2022-10-09T08:46:47.373Z,1.48
2022-10-09T08:49:23.591Z,0.50
2022-10-09T08:51:52.495Z,2.08
2022-10-09T08:54:30.849Z,0.95
2022-10-09T08:57:02.199Z,1.40
2022-10-09T08:59:30.235Z,1.15
2022-10-09T09:02:07.030Z,1.52
2022-10-09T09:04:51.123Z,1.38
2022-10-09T09:07:32.319Z,1.60
2022-10-09T09:10:06.695Z,1.10
2022-10-09T09:12:45.530Z,2.45
2022-10-09T09:15:33.877Z,1.95
2022-10-09T09:18:19.533Z,1.38
2022-10-09T09:20:53.665Z,1.58
2022-10-09T09:23:27.381Z,2.10
2022-10-09T09:25:59.536Z,1.42
2022-10-09T09:28:30.531Z,1.40
2022-10-09T09:31:01.657Z,1.85
2022-10-09T09:33:39.902Z,3.72
2022-10-09T09:36:16.955Z,1.38
2022-10-09T09:39:24.978Z,1.60
2022-10-09T09:41:34.552Z,4.50
2022-10-09T09:44:02.525Z,1.77
2022-10-09T09:46:32.205Z,1.58
2022-10-09T09:49:00.243Z,1.17
2022-10-09T09:51:31.274Z,2.25
2022-10-09T09:54:04.341Z,2.25
2022-10-09T09:57:07.090Z,2.08
2022-10-09T09:59:34.565Z,1.20
2022-10-09T10:02:05.023Z,1.20
2022-10-09T10:04:33.873Z,1.15
2022-10-09T10:07:02.594Z,2.50
2022-10-09T10:09:31.945Z,1.08
2022-10-09T10:12:03.563Z,1.35
2022-10-09T10:14:32.647Z,2.03
2022-10-09T10:17:02.256Z,1.35
2022-10-09T10:19:31.722Z,1.25
2022-10-09T10:22:01.553Z,0.93
2022-10-09T10:24:33.848Z,1.73
2022-10-09T10:27:06.510Z,1.27
2022-10-09T10:29:38.368Z,1.02
2022-10-09T10:32:15.714Z,1.15
2022-10-09T10:34:48.830Z,2.22
2022-10-09T10:37:29.497Z,1.35
2022-10-09T10:40:02.665Z,1.98
2022-10-09T10:42:41.874Z,1.70
2022-10-09T10:45:15.789Z,0.77
2022-10-09T10:47:50.339Z,1.42
2022-10-09T10:50:20.497Z,1.00
2022-10-09T10:53:03.251Z,1.35
2022-10-09T10:55:44.607Z,2.72
2022-10-09T10:58:26.286Z,0.75
2022-10-09T11:01:11.741Z,1.08
2022-10-09T11:04:08.686Z,0.82
2022-10-09T11:06:42.713Z,1.75
2022-10-09T11:09:16.544Z,2.28
2022-10-09T11:11:50.228Z,1.25
2022-10-09T11:14:34.781Z,1.25
2022-10-09T11:17:11.296Z,1.40
2022-10-09T11:19:59.874Z,1.95
2022-10-09T11:22:49.346Z,1.23
2022-10-09T11:25:29.718Z,1.33
2022-10-09T11:28:04.269Z,1.42
2022-10-09T11:30:39.176Z,1.25
2022-10-09T11:33:19.145Z,1.95
2022-10-09T11:35:53.440Z,2.20
2022-10-09T11:38:27.556Z,1.55
2022-10-09T11:40:56.748Z,0.65
2022-10-09T11:43:47.582Z,2.33
2022-10-09T11:46:23.956Z,0.63
2022-10-09T11:49:01.435Z,0.95
2022-10-09T11:51:36.210Z,1.58
2022-10-09T11:54:06.624Z,2.13
2022-10-09T11:56:36.975Z,1.25
2022-10-09T11:59:07.397Z,0.77
2022-10-09T12:01:39.118Z,1.20
2022-10-09T12:04:09.621Z,1.17
2022-10-09T12:06:48.151Z,1.45
2022-10-09T12:09:23.841Z,1.27
2022-10-09T12:12:01.691Z,1.65
2022-10-09T12:14:31.812Z,1.70
2022-10-09T12:17:01.658Z,2.63
2022-10-09T12:19:37.017Z,2.25
2022-10-09T12:22:08.824Z,1.53
2022-10-09T12:24:40.453Z,1.20
2022-10-09T12:27:09.901Z,1.35
2022-10-09T12:29:46.169Z,1.13
2022-10-09T12:32:23.539Z,0.82
2022-10-09T12:34:53.140Z,1.17
2022-10-09T12:37:22.845Z,1.48
2022-10-09T12:39:51.324Z,1.70
2022-10-09T12:42:23.388Z,1.02
2022-10-09T12:44:54.122Z,2.60
2022-10-09T12:47:27.395Z,2.55
2022-10-09T12:50:00.788Z,1.95
2022-10-09T12:52:29.929Z,1.60
2022-10-09T12:54:57.907Z,1.73
2022-10-09T12:57:28.053Z,2.42
2022-10-09T12:59:56.627Z,1.48
2022-10-09T13:02:26.139Z,2.10
2022-10-09T13:05:00.279Z,1.77
2022-10-09T13:07:30.306Z,3.08
2022-10-09T13:10:02.442Z,1.80
2022-10-09T13:12:31.722Z,2.05
2022-10-09T13:15:00.992Z,3.28
2022-10-09T13:17:33.530Z,1.13
2022-10-09T13:20:04.069Z,1.38
2022-10-09T13:22:35.046Z,1.52
2022-10-09T13:25:04.227Z,2.10
2022-10-09T13:27:34.990Z,2.03
2022-10-09T13:30:03.289Z,2.60
2022-10-09T13:32:32.706Z,1.20
2022-10-09T13:35:00.686Z,2.42
2022-10-09T13:37:28.851Z,1.70
2022-10-09T13:39:58.555Z,1.30
2022-10-09T13:42:29.493Z,1.48
2022-10-09T13:44:57.695Z,1.50
2022-10-09T13:47:26.055Z,2.25
2022-10-09T13:49:55.367Z,2.30
2022-10-09T13:52:23.400Z,1.75
2022-10-09T13:54:51.610Z,1.42
2022-10-09T13:57:19.679Z,2.55
2022-10-09T13:59:47.693Z,2.97
2022-10-09T14:02:15.779Z,2.00
2022-10-09T14:04:44.065Z,0.65
2022-10-09T14:07:13.449Z,2.28
2022-10-09T14:09:41.435Z,0.85
2022-10-09T14:12:09.703Z,1.27
2022-10-09T14:14:37.689Z,0.73
2022-10-09T14:17:05.858Z,1.35
2022-10-09T14:19:33.829Z,0.93
2022-10-09T14:22:01.809Z,1.50
2022-10-09T14:24:31.201Z,1.48
2022-10-09T14:26:59.218Z,1.27
2022-10-09T14:29:27.217Z,1.67
2022-10-09T14:31:55.212Z,1.27
2022-10-09T14:34:23.213Z,1.10
2022-10-09T14:36:51.485Z,1.25
2022-10-09T14:39:19.473Z,1.30
2022-10-09T14:41:49.029Z,0.95
2022-10-09T14:44:16.987Z,2.15
2022-10-09T14:46:45.097Z,1.17
2022-10-09T14:49:13.223Z,1.35
2022-10-09T14:51:42.109Z,1.33
2022-10-09T14:54:11.814Z,1.40
2022-10-09T14:56:40.114Z,2.30
2022-10-09T14:59:09.569Z,1.50
2022-10-09T15:01:37.747Z,2.10
2022-10-09T15:04:06.952Z,1.33
2022-10-09T15:06:35.552Z,2.40
2022-10-09T15:09:06.172Z,1.73
2022-10-09T15:11:35.837Z,1.10
2022-10-09T15:14:04.558Z,1.85
2022-10-09T15:16:34.518Z,1.60
2022-10-09T15:19:03.218Z,0.60
2022-10-09T15:21:32.977Z,1.42
2022-10-09T15:24:02.495Z,1.50
2022-10-09T15:26:32.852Z,1.10
2022-10-09T15:29:02.702Z,1.40
2022-10-09T15:31:31.904Z,1.17
2022-10-09T15:34:02.386Z,1.60
2022-10-09T15:36:31.385Z,1.67
2022-10-09T15:39:02.709Z,1.30
2022-10-09T15:41:32.502Z,1.48
2022-10-09T15:44:01.857Z,0.93
2022-10-09T15:46:30.048Z,1.00
2022-10-09T15:48:58.146Z,1.10
2022-10-09T15:51:29.318Z,0.80
2022-10-09T15:54:00.533Z,1.67
2022-10-09T15:56:28.672Z,0.60
2022-10-09T15:58:57.654Z,1.20
2022-10-09T16:01:25.776Z,1.58
2022-10-09T16:03:53.966Z,1.05
2022-10-09T16:06:23.841Z,1.48
2022-10-09T16:08:56.602Z,1.48
2022-10-09T16:11:27.248Z,1.55
2022-10-09T16:13:56.432Z,1.52
2022-10-09T16:16:28.366Z,1.80
2022-10-09T16:18:57.340Z,1.70
2022-10-09T16:21:27.347Z,1.70
2022-10-09T16:23:59.161Z,1.98
2022-10-09T16:26:29.234Z,1.85
2022-10-09T16:28:57.355Z,0.75
2022-10-09T16:31:28.069Z,1.20
2022-10-09T16:33:56.276Z,0.93
2022-10-09T16:36:24.677Z,0.70
2022-10-09T16:38:52.704Z,2.45
2022-10-09T16:41:24.129Z,2.47
2022-10-09T16:43:53.811Z,2.25
2022-10-09T16:46:23.869Z,1.98
2022-10-09T16:48:53.469Z,1.90
2022-10-09T16:51:23.502Z,1.13
2022-10-09T16:53:52.136Z,1.42
2022-10-09T16:56:23.830Z,0.98
2022-10-09T16:58:55.773Z,1.08
2022-10-09T17:01:24.516Z,1.55
2022-10-09T17:03:54.674Z,1.05
2022-10-09T17:06:23.802Z,0.82
2022-10-09T17:08:52.459Z,0.75
2022-10-09T17:11:22.627Z,1.10
2022-10-09T17:13:50.660Z,1.98
2022-10-09T17:16:20.825Z,1.35
2022-10-09T17:18:49.180Z,1.38
2022-10-09T17:21:19.065Z,1.50
2022-10-09T17:23:47.852Z,1.25
2022-10-09T17:26:18.238Z,1.52
2022-10-09T17:28:48.860Z,0.65
2022-10-09T17:31:19.088Z,0.82
2022-10-09T17:33:48.411Z,1.50
2022-10-09T17:36:21.571Z,1.30
2022-10-09T17:38:50.553Z,1.13
2022-10-09T17:41:21.379Z,1.52
2022-10-09T17:43:51.335Z,0.90
2022-10-09T17:46:20.006Z,1.02
2022-10-09T17:48:52.664Z,0.70
2022-10-09T17:51:23.895Z,1.67
2022-10-09T17:53:52.357Z,0.65
2022-10-09T17:56:20.494Z,1.58
2022-10-09T17:58:50.183Z,2.42
2022-10-09T18:01:19.544Z,1.65
2022-10-09T18:03:47.573Z,1.38
2022-10-09T18:06:18.112Z,1.30
2022-10-09T18:08:46.776Z,2.33
2022-10-09T18:11:18.036Z,0.65
2022-10-09T18:13:46.943Z,1.20
2022-10-09T18:16:18.591Z,1.08
2022-10-09T18:18:47.398Z,1.02
2022-10-09T18:21:17.696Z,2.60
2022-10-09T18:23:46.342Z,1.27
2022-10-09T18:26:16.465Z,1.33
2022-10-09T18:28:48.176Z,1.83
2022-10-09T18:31:20.730Z,1.50
2022-10-09T18:33:49.080Z,1.65
2022-10-09T18:36:19.710Z,1.63
2022-10-09T18:38:49.430Z,0.85
2022-10-09T18:41:18.991Z,1.52
2022-10-09T18:43:47.404Z,1.17
2022-10-09T18:46:18.808Z,2.35
2022-10-09T18:48:47.534Z,2.03
2022-10-09T18:51:18.795Z,1.52
2022-10-09T18:53:54.902Z,2.38
2022-10-09T18:56:23.491Z,1.45
2022-10-09T18:58:53.536Z,1.40
2022-10-09T19:01:23.044Z,0.90
2022-10-09T19:03:51.149Z,1.42
2022-10-09T19:06:19.965Z,3.70
2022-10-09T19:08:48.371Z,1.67
2022-10-09T19:11:16.683Z,1.60
2022-10-09T19:13:45.363Z,1.33
2022-10-09T19:16:13.413Z,1.67
2022-10-09T19:18:42.753Z,2.05
2022-10-09T19:21:13.984Z,2.03
2022-10-09T19:23:42.131Z,1.13
2022-10-09T19:26:10.223Z,1.45
2022-10-09T19:28:38.678Z,0.98
2022-10-09T19:31:07.599Z,1.85
2022-10-09T19:33:36.440Z,2.55
2022-10-09T19:36:07.330Z,2.55
2022-10-09T19:38:36.614Z,0.90
2022-10-09T19:41:05.552Z,1.08
2022-10-09T19:43:33.860Z,1.48
2022-10-09T19:46:03.693Z,1.25
2022-10-09T19:48:31.695Z,1.85
2022-10-09T19:50:59.886Z,1.67
2022-10-09T19:53:29.260Z,1.58
2022-10-09T19:55:57.349Z,1.77
2022-10-09T19:58:25.391Z,1.58
2022-10-09T20:00:53.410Z,1.20
2022-10-09T20:03:21.757Z,1.25
2022-10-09T20:05:49.811Z,1.23
2022-10-09T20:08:17.849Z,3.67
2022-10-09T20:10:47.217Z,1.90
2022-10-09T20:13:15.196Z,1.75
2022-10-09T20:15:43.582Z,0.98
2022-10-09T20:18:11.715Z,2.10
2022-10-09T20:20:40.460Z,2.20
2022-10-09T20:23:08.418Z,1.73
2022-10-09T20:25:36.418Z,0.82
2022-10-09T20:28:05.914Z,1.38
2022-10-09T20:30:35.180Z,1.52
2022-10-09T20:33:03.171Z,1.25
2022-10-09T20:35:31.176Z,0.98
2022-10-09T20:37:59.728Z,1.30
2022-10-09T20:40:27.799Z,1.30
2022-10-09T20:42:55.805Z,1.10
2022-10-09T20:45:25.326Z,1.75
2022-10-09T20:47:53.374Z,0.90
2022-10-09T20:50:21.359Z,0.70
2022-10-09T20:52:55.628Z,1.42
2022-10-09T20:55:23.728Z,0.77
2022-10-09T20:57:54.846Z,1.58
2022-10-09T21:00:26.413Z,1.80
2022-10-09T21:02:55.805Z,0.98
2022-10-09T21:05:25.713Z,1.98
2022-10-09T21:07:53.684Z,1.60
2022-10-09T21:10:23.078Z,1.73
2022-10-09T21:12:53.417Z,1.67
2022-10-09T21:15:22.147Z,1.42
2022-10-09T21:17:51.608Z,1.23
2022-10-09T21:20:19.641Z,0.90
2022-10-09T21:22:47.968Z,1.75
2022-10-09T21:25:16.662Z,0.68
2022-10-09T21:27:44.677Z,1.25
2022-10-09T21:30:14.259Z,0.57
2022-10-09T21:32:46.313Z,1.52
2022-10-09T21:35:15.743Z,2.95
2022-10-09T21:37:43.950Z,0.98
2022-10-09T21:40:12.135Z,0.88
2022-10-09T21:42:40.106Z,1.17
2022-10-09T21:45:09.399Z,1.67
2022-10-09T21:47:46.549Z,0.93
2022-10-09T21:50:16.158Z,1.20
2022-10-09T21:52:44.116Z,0.60
2022-10-09T21:55:12.263Z,1.00
2022-10-09T21:57:40.301Z,0.70
2022-10-09T22:00:10.035Z,1.00
2022-10-09T22:02:40.157Z,0.80
2022-10-09T22:05:08.650Z,1.77
2022-10-09T22:07:38.321Z,0.77
2022-10-09T22:10:07.585Z,0.60
2022-10-09T22:12:35.598Z,1.30
2022-10-09T22:15:03.618Z,0.90
2022-10-09T22:17:31.737Z,0.70
2022-10-09T22:19:59.755Z,1.60
2022-10-09T22:22:27.815Z,1.07
2022-10-09T22:25:00.439Z,0.77
2022-10-09T22:27:34.053Z,1.77
2022-10-09T22:30:02.046Z,1.00
2022-10-09T22:32:31.997Z,0.97
2022-10-09T22:35:00.094Z,0.70
2022-10-09T22:37:30.477Z,0.97
2022-10-09T22:39:59.804Z,1.30
2022-10-09T22:42:27.791Z,1.10
2022-10-09T22:44:56.015Z,1.23
2022-10-09T22:47:24.151Z,0.77
2022-10-09T22:49:53.466Z,0.90
2022-10-09T22:52:25.307Z,0.70
2022-10-09T22:54:53.546Z,1.23
2022-10-09T22:57:23.010Z,1.00
2022-10-09T22:59:50.996Z,0.93
2022-10-09T23:02:19.057Z,0.77
2022-10-09T23:04:47.324Z,1.10
2022-10-09T23:07:15.508Z,0.98
2022-10-09T23:09:43.742Z,0.93
2022-10-09T23:12:11.743Z,1.00
2022-10-09T23:14:41.072Z,0.57
2022-10-09T23:17:09.145Z,1.05
2022-10-09T23:19:37.438Z,0.73
2022-10-09T23:22:05.694Z,1.20
2022-10-09T23:24:33.650Z,1.20
2022-10-09T23:27:01.653Z,1.00
2022-10-09T23:29:29.696Z,1.25
2022-10-09T23:31:59.073Z,1.05
2022-10-09T23:34:27.043Z,1.10
2022-10-09T23:36:55.090Z,0.93
2022-10-09T23:39:23.092Z,1.40
2022-10-09T23:41:51.296Z,1.02
2022-10-09T23:44:22.135Z,0.63
2022-10-09T23:46:50.430Z,1.35
2022-10-09T23:49:19.854Z,1.35
2022-10-09T23:51:47.990Z,0.45
2022-10-09T23:54:15.960Z,0.95
2022-10-09T23:56:44.072Z,0.93
2022-10-09T23:59:12.857Z,1.30
